sensor_id;sensor_type;location;lat;lon;timestamp;temperature;humidity
11239;DHT22;5677;48.488;13.436;2023-04-15T00:02:00;14.00;50.70
11239;DHT22;5677;48.488;13.436;2023-04-15T00:04:27;14.00;50.70
11239;DHT22;5677;48.488;13.436;2023-04-15T00:06:56;14.00;50.70
11239;DHT22;5677;48.488;13.436;2023-04-15T00:09:24;14.00;50.70
11239;DHT22;5677;48.488;13.436;2023-04-15T00:11:50;14.00;50.60
11239;DHT22;5677;48.488;13.436;2023-04-15T00:14:17;14.00;50.70
11239;DHT22;5677;48.488;13.436;2023-04-15T00:16:44;14.00;50.60
11239;DHT22;5677;48.488;13.436;2023-04-15T00:19:10;14.00;50.60
11239;DHT22;5677;48.488;13.436;2023-04-15T00:21:37;14.00;50.70
11239;DHT22;5677;48.488;13.436;2023-04-15T00:24:04;14.00;50.70
11239;DHT22;5677;48.488;13.436;2023-04-15T00:26:32;14.00;50.70
11239;DHT22;5677;48.488;13.436;2023-04-15T00:29:00;14.00;50.60
11239;DHT22;5677;48.488;13.436;2023-04-15T00:31:26;14.00;50.70
11239;DHT22;5677;48.488;13.436;2023-04-15T00:33:53;14.00;50.60
11239;DHT22;5677;48.488;13.436;2023-04-15T00:36:20;14.00;50.60
11239;DHT22;5677;48.488;13.436;2023-04-15T00:38:47;14.00;50.60
11239;DHT22;5677;48.488;13.436;2023-04-15T00:41:14;14.00;50.60
11239;DHT22;5677;48.488;13.436;2023-04-15T00:43:42;14.00;50.60
11239;DHT22;5677;48.488;13.436;2023-04-15T00:46:11;14.00;50.60
11239;DHT22;5677;48.488;13.436;2023-04-15T00:48:38;14.00;50.60
11239;DHT22;5677;48.488;13.436;2023-04-15T00:51:06;13.90;50.60
11239;DHT22;5677;48.488;13.436;2023-04-15T00:53:34;14.00;50.60
11239;DHT22;5677;48.488;13.436;2023-04-15T00:56:00;14.00;50.60
11239;DHT22;5677;48.488;13.436;2023-04-15T00:58:27;14.00;50.60
11239;DHT22;5677;48.488;13.436;2023-04-15T01:00:56;14.00;50.60
11239;DHT22;5677;48.488;13.436;2023-04-15T01:03:23;13.90;50.60
11239;DHT22;5677;48.488;13.436;2023-04-15T01:05:52;14.00;50.60
11239;DHT22;5677;48.488;13.436;2023-04-15T01:08:23;13.90;50.60
11239;DHT22;5677;48.488;13.436;2023-04-15T01:10:52;14.00;50.90
11239;DHT22;5677;48.488;13.436;2023-04-15T01:13:19;13.90;50.70
11239;DHT22;5677;48.488;13.436;2023-04-15T01:15:46;14.00;50.60
11239;DHT22;5677;48.488;13.436;2023-04-15T01:18:14;13.90;50.60
11239;DHT22;5677;48.488;13.436;2023-04-15T01:20:41;13.90;50.60
11239;DHT22;5677;48.488;13.436;2023-04-15T01:23:08;13.90;50.60
11239;DHT22;5677;48.488;13.436;2023-04-15T01:25:40;13.90;50.60
11239;DHT22;5677;48.488;13.436;2023-04-15T01:28:07;13.90;50.70
11239;DHT22;5677;48.488;13.436;2023-04-15T01:30:35;13.90;50.70
11239;DHT22;5677;48.488;13.436;2023-04-15T01:33:02;13.90;50.70
11239;DHT22;5677;48.488;13.436;2023-04-15T01:35:29;13.90;50.70
11239;DHT22;5677;48.488;13.436;2023-04-15T01:38:01;14.00;50.80
11239;DHT22;5677;48.488;13.436;2023-04-15T01:40:29;13.90;50.70
11239;DHT22;5677;48.488;13.436;2023-04-15T01:42:57;13.90;50.70
11239;DHT22;5677;48.488;13.436;2023-04-15T01:45:24;14.00;50.70
11239;DHT22;5677;48.488;13.436;2023-04-15T01:47:51;14.00;50.80
11239;DHT22;5677;48.488;13.436;2023-04-15T01:50:18;13.90;50.80
11239;DHT22;5677;48.488;13.436;2023-04-15T01:52:46;13.90;50.80
11239;DHT22;5677;48.488;13.436;2023-04-15T01:55:13;13.90;50.80
11239;DHT22;5677;48.488;13.436;2023-04-15T01:57:39;14.00;50.80
11239;DHT22;5677;48.488;13.436;2023-04-15T02:00:09;13.90;50.80
11239;DHT22;5677;48.488;13.436;2023-04-15T02:02:36;13.90;50.80
11239;DHT22;5677;48.488;13.436;2023-04-15T02:05:03;13.90;50.90
11239;DHT22;5677;48.488;13.436;2023-04-15T02:07:30;14.00;50.80
11239;DHT22;5677;48.488;13.436;2023-04-15T02:09:57;13.90;50.90
11239;DHT22;5677;48.488;13.436;2023-04-15T02:12:24;14.00;50.80
11239;DHT22;5677;48.488;13.436;2023-04-15T02:14:51;13.90;50.90
11239;DHT22;5677;48.488;13.436;2023-04-15T02:17:19;13.90;50.90
11239;DHT22;5677;48.488;13.436;2023-04-15T02:19:46;13.90;50.90
11239;DHT22;5677;48.488;13.436;2023-04-15T02:22:13;13.90;50.90
11239;DHT22;5677;48.488;13.436;2023-04-15T02:24:43;13.90;50.90
11239;DHT22;5677;48.488;13.436;2023-04-15T02:27:10;13.90;50.90
11239;DHT22;5677;48.488;13.436;2023-04-15T02:29:37;13.90;50.90
11239;DHT22;5677;48.488;13.436;2023-04-15T02:32:04;13.90;50.90
11239;DHT22;5677;48.488;13.436;2023-04-15T02:34:32;13.90;50.90
11239;DHT22;5677;48.488;13.436;2023-04-15T02:36:59;13.90;50.90
11239;DHT22;5677;48.488;13.436;2023-04-15T02:39:25;13.90;51.00
11239;DHT22;5677;48.488;13.436;2023-04-15T02:41:52;13.90;50.90
11239;DHT22;5677;48.488;13.436;2023-04-15T02:44:19;13.90;51.60
11239;DHT22;5677;48.488;13.436;2023-04-15T02:46:48;13.90;51.00
11239;DHT22;5677;48.488;13.436;2023-04-15T02:49:17;13.90;51.00
11239;DHT22;5677;48.488;13.436;2023-04-15T02:51:45;13.90;50.90
11239;DHT22;5677;48.488;13.436;2023-04-15T02:54:14;13.90;51.00
11239;DHT22;5677;48.488;13.436;2023-04-15T02:56:40;13.90;51.00
11239;DHT22;5677;48.488;13.436;2023-04-15T02:59:07;13.90;51.00
11239;DHT22;5677;48.488;13.436;2023-04-15T03:01:34;13.90;51.00
11239;DHT22;5677;48.488;13.436;2023-04-15T03:04:00;13.90;51.00
11239;DHT22;5677;48.488;13.436;2023-04-15T03:06:27;13.90;51.00
11239;DHT22;5677;48.488;13.436;2023-04-15T03:08:55;13.90;51.10
11239;DHT22;5677;48.488;13.436;2023-04-15T03:11:22;13.90;51.00
11239;DHT22;5677;48.488;13.436;2023-04-15T03:13:48;13.90;51.00
11239;DHT22;5677;48.488;13.436;2023-04-15T03:16:15;13.90;51.00
11239;DHT22;5677;48.488;13.436;2023-04-15T03:18:42;13.90;51.00
11239;DHT22;5677;48.488;13.436;2023-04-15T03:21:09;13.90;51.00
11239;DHT22;5677;48.488;13.436;2023-04-15T03:23:35;13.90;51.00
11239;DHT22;5677;48.488;13.436;2023-04-15T03:26:04;13.90;51.00
11239;DHT22;5677;48.488;13.436;2023-04-15T03:28:31;13.90;51.00
11239;DHT22;5677;48.488;13.436;2023-04-15T03:30:58;13.90;51.00
11239;DHT22;5677;48.488;13.436;2023-04-15T03:33:25;13.90;50.90
11239;DHT22;5677;48.488;13.436;2023-04-15T03:35:52;13.90;51.00
11239;DHT22;5677;48.488;13.436;2023-04-15T03:38:19;13.90;51.00
11239;DHT22;5677;48.488;13.436;2023-04-15T03:40:46;13.90;51.00
11239;DHT22;5677;48.488;13.436;2023-04-15T03:43:14;13.90;51.00
11239;DHT22;5677;48.488;13.436;2023-04-15T03:45:41;13.80;50.90
11239;DHT22;5677;48.488;13.436;2023-04-15T03:48:07;13.90;50.90
11239;DHT22;5677;48.488;13.436;2023-04-15T03:50:34;13.80;50.80
11239;DHT22;5677;48.488;13.436;2023-04-15T03:53:01;13.90;50.90
11239;DHT22;5677;48.488;13.436;2023-04-15T03:55:27;13.90;50.90
11239;DHT22;5677;48.488;13.436;2023-04-15T03:57:54;13.90;50.90
11239;DHT22;5677;48.488;13.436;2023-04-15T04:00:22;13.80;50.80
11239;DHT22;5677;48.488;13.436;2023-04-15T04:02:49;13.80;50.70
11239;DHT22;5677;48.488;13.436;2023-04-15T04:05:16;13.80;50.70
11239;DHT22;5677;48.488;13.436;2023-04-15T04:07:43;13.80;50.70
11239;DHT22;5677;48.488;13.436;2023-04-15T04:10:10;13.80;50.70
11239;DHT22;5677;48.488;13.436;2023-04-15T04:12:37;13.80;50.70
11239;DHT22;5677;48.488;13.436;2023-04-15T04:15:04;13.80;50.70
11239;DHT22;5677;48.488;13.436;2023-04-15T04:17:32;13.80;50.70
11239;DHT22;5677;48.488;13.436;2023-04-15T04:19:59;13.80;50.70
11239;DHT22;5677;48.488;13.436;2023-04-15T04:22:26;13.80;50.70
11239;DHT22;5677;48.488;13.436;2023-04-15T04:24:52;13.80;50.70
11239;DHT22;5677;48.488;13.436;2023-04-15T04:27:19;13.80;50.70
11239;DHT22;5677;48.488;13.436;2023-04-15T04:29:46;13.80;50.70
11239;DHT22;5677;48.488;13.436;2023-04-15T04:32:14;13.80;50.60
11239;DHT22;5677;48.488;13.436;2023-04-15T04:34:42;13.80;50.60
11239;DHT22;5677;48.488;13.436;2023-04-15T04:37:09;13.80;50.60
11239;DHT22;5677;48.488;13.436;2023-04-15T04:39:35;13.80;50.60
11239;DHT22;5677;48.488;13.436;2023-04-15T04:42:02;13.80;50.60
11239;DHT22;5677;48.488;13.436;2023-04-15T04:44:29;13.80;50.60
11239;DHT22;5677;48.488;13.436;2023-04-15T04:46:56;13.80;50.60
11239;DHT22;5677;48.488;13.436;2023-04-15T04:49:22;13.80;50.60
11239;DHT22;5677;48.488;13.436;2023-04-15T04:51:51;13.80;50.60
11239;DHT22;5677;48.488;13.436;2023-04-15T04:54:17;13.80;50.60
11239;DHT22;5677;48.488;13.436;2023-04-15T04:56:44;13.80;50.60
11239;DHT22;5677;48.488;13.436;2023-04-15T04:59:11;13.80;50.60
11239;DHT22;5677;48.488;13.436;2023-04-15T05:01:38;13.80;50.60
11239;DHT22;5677;48.488;13.436;2023-04-15T05:04:05;13.80;50.60
11239;DHT22;5677;48.488;13.436;2023-04-15T05:06:32;13.80;50.50
11239;DHT22;5677;48.488;13.436;2023-04-15T05:09:03;13.80;50.50
11239;DHT22;5677;48.488;13.436;2023-04-15T05:11:30;13.80;50.50
11239;DHT22;5677;48.488;13.436;2023-04-15T05:13:57;13.80;50.50
11239;DHT22;5677;48.488;13.436;2023-04-15T05:16:26;13.80;50.50
11239;DHT22;5677;48.488;13.436;2023-04-15T05:18:52;13.80;50.50
11239;DHT22;5677;48.488;13.436;2023-04-15T05:21:19;13.80;50.50
11239;DHT22;5677;48.488;13.436;2023-04-15T05:23:46;13.80;50.40
11239;DHT22;5677;48.488;13.436;2023-04-15T05:26:14;13.80;50.50
11239;DHT22;5677;48.488;13.436;2023-04-15T05:28:42;13.80;50.50
11239;DHT22;5677;48.488;13.436;2023-04-15T05:31:08;13.80;50.50
11239;DHT22;5677;48.488;13.436;2023-04-15T05:33:35;13.80;50.50
11239;DHT22;5677;48.488;13.436;2023-04-15T05:36:02;13.80;50.50
11239;DHT22;5677;48.488;13.436;2023-04-15T05:38:29;13.80;50.40
11239;DHT22;5677;48.488;13.436;2023-04-15T05:40:56;13.80;50.40
11239;DHT22;5677;48.488;13.436;2023-04-15T05:43:24;13.80;50.40
11239;DHT22;5677;48.488;13.436;2023-04-15T05:45:50;13.80;50.40
11239;DHT22;5677;48.488;13.436;2023-04-15T05:48:17;13.90;50.60
11239;DHT22;5677;48.488;13.436;2023-04-15T05:50:44;13.80;50.50
11239;DHT22;5677;48.488;13.436;2023-04-15T05:53:10;13.80;50.40
11239;DHT22;5677;48.488;13.436;2023-04-15T05:55:37;13.80;50.40
11239;DHT22;5677;48.488;13.436;2023-04-15T05:58:04;13.80;50.40
11239;DHT22;5677;48.488;13.436;2023-04-15T06:00:32;13.80;50.40
11239;DHT22;5677;48.488;13.436;2023-04-15T06:02:59;13.80;50.40
11239;DHT22;5677;48.488;13.436;2023-04-15T06:05:25;13.80;50.40
11239;DHT22;5677;48.488;13.436;2023-04-15T06:07:52;13.80;48.70
11239;DHT22;5677;48.488;13.436;2023-04-15T06:10:19;13.80;50.00
11239;DHT22;5677;48.488;13.436;2023-04-15T06:12:45;13.80;50.30
11239;DHT22;5677;48.488;13.436;2023-04-15T06:15:12;13.80;50.40
11239;DHT22;5677;48.488;13.436;2023-04-15T06:17:40;13.70;47.70
11239;DHT22;5677;48.488;13.436;2023-04-15T06:20:08;13.70;47.50
11239;DHT22;5677;48.488;13.436;2023-04-15T06:22:36;13.60;46.50
11239;DHT22;5677;48.488;13.436;2023-04-15T06:25:03;13.40;46.20
11239;DHT22;5677;48.488;13.436;2023-04-15T06:27:30;13.30;47.10
11239;DHT22;5677;48.488;13.436;2023-04-15T06:29:57;13.30;48.70
11239;DHT22;5677;48.488;13.436;2023-04-15T06:32:23;13.30;49.10
11239;DHT22;5677;48.488;13.436;2023-04-15T06:34:51;13.40;49.20
11239;DHT22;5677;48.488;13.436;2023-04-15T06:37:18;13.50;49.20
11239;DHT22;5677;48.488;13.436;2023-04-15T06:39:45;13.50;49.00
11239;DHT22;5677;48.488;13.436;2023-04-15T06:42:12;13.50;49.10
11239;DHT22;5677;48.488;13.436;2023-04-15T06:44:39;13.50;47.80
11239;DHT22;5677;48.488;13.436;2023-04-15T06:47:06;13.50;48.60
11239;DHT22;5677;48.488;13.436;2023-04-15T06:49:33;13.50;49.40
11239;DHT22;5677;48.488;13.436;2023-04-15T06:52:01;13.50;49.80
11239;DHT22;5677;48.488;13.436;2023-04-15T06:54:29;13.60;50.00
11239;DHT22;5677;48.488;13.436;2023-04-15T06:56:56;13.60;49.80
11239;DHT22;5677;48.488;13.436;2023-04-15T06:59:23;13.60;49.90
11239;DHT22;5677;48.488;13.436;2023-04-15T07:01:50;13.60;49.90
11239;DHT22;5677;48.488;13.436;2023-04-15T07:04:16;13.70;50.00
11239;DHT22;5677;48.488;13.436;2023-04-15T07:06:43;13.70;49.90
11239;DHT22;5677;48.488;13.436;2023-04-15T07:09:11;13.70;49.90
11239;DHT22;5677;48.488;13.436;2023-04-15T07:11:38;13.60;47.50
11239;DHT22;5677;48.488;13.436;2023-04-15T07:14:05;13.50;47.50
11239;DHT22;5677;48.488;13.436;2023-04-15T07:16:32;13.40;49.00
11239;DHT22;5677;48.488;13.436;2023-04-15T07:18:58;13.40;49.90
11239;DHT22;5677;48.488;13.436;2023-04-15T07:21:25;13.40;50.50
11239;DHT22;5677;48.488;13.436;2023-04-15T07:23:53;13.40;50.70
11239;DHT22;5677;48.488;13.436;2023-04-15T07:26:21;13.50;50.70
11239;DHT22;5677;48.488;13.436;2023-04-15T07:28:48;13.50;50.60
11239;DHT22;5677;48.488;13.436;2023-04-15T07:31:15;13.50;50.50
11239;DHT22;5677;48.488;13.436;2023-04-15T07:33:42;13.50;50.40
11239;DHT22;5677;48.488;13.436;2023-04-15T07:36:09;13.60;50.30
11239;DHT22;5677;48.488;13.436;2023-04-15T07:38:35;13.60;50.10
11239;DHT22;5677;48.488;13.436;2023-04-15T07:41:02;13.60;50.10
11239;DHT22;5677;48.488;13.436;2023-04-15T07:43:30;13.60;50.20
11239;DHT22;5677;48.488;13.436;2023-04-15T07:45:57;13.60;50.20
11239;DHT22;5677;48.488;13.436;2023-04-15T07:48:24;13.60;50.20
11239;DHT22;5677;48.488;13.436;2023-04-15T07:50:51;13.60;50.10
11239;DHT22;5677;48.488;13.436;2023-04-15T07:53:18;13.70;50.20
11239;DHT22;5677;48.488;13.436;2023-04-15T07:55:44;13.60;50.10
11239;DHT22;5677;48.488;13.436;2023-04-15T07:58:11;13.70;50.20
11239;DHT22;5677;48.488;13.436;2023-04-15T08:00:39;13.70;49.80
11239;DHT22;5677;48.488;13.436;2023-04-15T08:03:06;13.60;49.00
11239;DHT22;5677;48.488;13.436;2023-04-15T08:05:33;13.60;49.30
11239;DHT22;5677;48.488;13.436;2023-04-15T08:07:59;13.50;50.30
11239;DHT22;5677;48.488;13.436;2023-04-15T08:10:27;13.40;50.70
11239;DHT22;5677;48.488;13.436;2023-04-15T08:12:54;13.40;50.80
11239;DHT22;5677;48.488;13.436;2023-04-15T08:15:22;13.40;49.10
11239;DHT22;5677;48.488;13.436;2023-04-15T08:17:50;13.30;50.40
11239;DHT22;5677;48.488;13.436;2023-04-15T08:20:16;13.30;51.50
11239;DHT22;5677;48.488;13.436;2023-04-15T08:22:43;13.30;52.40
11239;DHT22;5677;48.488;13.436;2023-04-15T08:25:10;13.30;52.30
11239;DHT22;5677;48.488;13.436;2023-04-15T08:27:37;13.40;52.20
11239;DHT22;5677;48.488;13.436;2023-04-15T08:30:05;13.50;52.20
11239;DHT22;5677;48.488;13.436;2023-04-15T08:32:32;13.50;52.00
11239;DHT22;5677;48.488;13.436;2023-04-15T08:35:00;13.50;52.20
11239;DHT22;5677;48.488;13.436;2023-04-15T08:37:27;13.60;52.50
11239;DHT22;5677;48.488;13.436;2023-04-15T08:39:53;13.60;52.30
11239;DHT22;5677;48.488;13.436;2023-04-15T08:42:25;13.70;52.20
11239;DHT22;5677;48.488;13.436;2023-04-15T08:44:54;13.70;52.10
11239;DHT22;5677;48.488;13.436;2023-04-15T08:47:22;13.70;52.10
11239;DHT22;5677;48.488;13.436;2023-04-15T08:49:54;13.80;52.00
11239;DHT22;5677;48.488;13.436;2023-04-15T08:52:29;13.80;51.90
11239;DHT22;5677;48.488;13.436;2023-04-15T08:54:57;13.80;51.80
11239;DHT22;5677;48.488;13.436;2023-04-15T08:57:26;13.80;51.70
11239;DHT22;5677;48.488;13.436;2023-04-15T08:59:55;13.80;51.70
11239;DHT22;5677;48.488;13.436;2023-04-15T09:02:23;13.90;51.90
11239;DHT22;5677;48.488;13.436;2023-04-15T09:04:51;13.90;52.10
11239;DHT22;5677;48.488;13.436;2023-04-15T09:07:18;13.90;52.40
11239;DHT22;5677;48.488;13.436;2023-04-15T09:09:47;13.90;52.90
11239;DHT22;5677;48.488;13.436;2023-04-15T09:12:14;13.90;52.90
11239;DHT22;5677;48.488;13.436;2023-04-15T09:14:42;13.90;53.20
11239;DHT22;5677;48.488;13.436;2023-04-15T09:17:09;14.00;53.20
11239;DHT22;5677;48.488;13.436;2023-04-15T09:19:36;14.00;53.00
11239;DHT22;5677;48.488;13.436;2023-04-15T09:22:03;14.00;53.00
11239;DHT22;5677;48.488;13.436;2023-04-15T09:24:36;14.00;52.80
11239;DHT22;5677;48.488;13.436;2023-04-15T09:27:05;14.00;52.70
11239;DHT22;5677;48.488;13.436;2023-04-15T09:29:32;13.90;52.60
11239;DHT22;5677;48.488;13.436;2023-04-15T09:32:09;13.90;52.50
11239;DHT22;5677;48.488;13.436;2023-04-15T09:34:36;13.90;52.40
11239;DHT22;5677;48.488;13.436;2023-04-15T09:37:03;13.90;52.40
11239;DHT22;5677;48.488;13.436;2023-04-15T09:39:45;13.90;52.30
11239;DHT22;5677;48.488;13.436;2023-04-15T09:42:14;13.90;52.20
11239;DHT22;5677;48.488;13.436;2023-04-15T09:44:42;13.90;52.30
11239;DHT22;5677;48.488;13.436;2023-04-15T09:47:09;13.90;52.20
11239;DHT22;5677;48.488;13.436;2023-04-15T09:49:54;13.90;52.10
11239;DHT22;5677;48.488;13.436;2023-04-15T09:52:21;13.90;52.10
11239;DHT22;5677;48.488;13.436;2023-04-15T09:54:52;13.90;52.10
11239;DHT22;5677;48.488;13.436;2023-04-15T09:57:21;13.90;52.10
11239;DHT22;5677;48.488;13.436;2023-04-15T09:59:48;13.90;52.00
11239;DHT22;5677;48.488;13.436;2023-04-15T10:02:17;13.90;52.00
11239;DHT22;5677;48.488;13.436;2023-04-15T10:04:44;14.00;52.00
11239;DHT22;5677;48.488;13.436;2023-04-15T10:07:14;13.90;52.00
11239;DHT22;5677;48.488;13.436;2023-04-15T10:09:44;13.90;52.20
11239;DHT22;5677;48.488;13.436;2023-04-15T10:12:11;13.90;52.20
11239;DHT22;5677;48.488;13.436;2023-04-15T10:14:41;13.90;52.20
11239;DHT22;5677;48.488;13.436;2023-04-15T10:17:10;13.90;52.10
11239;DHT22;5677;48.488;13.436;2023-04-15T10:19:37;14.00;52.10
11239;DHT22;5677;48.488;13.436;2023-04-15T10:22:05;14.00;52.10
11239;DHT22;5677;48.488;13.436;2023-04-15T10:24:32;13.90;52.10
11239;DHT22;5677;48.488;13.436;2023-04-15T10:26:59;13.90;52.10
11239;DHT22;5677;48.488;13.436;2023-04-15T10:29:28;13.90;52.20
11239;DHT22;5677;48.488;13.436;2023-04-15T10:31:58;13.80;52.00
11239;DHT22;5677;48.488;13.436;2023-04-15T10:34:26;13.80;52.10
11239;DHT22;5677;48.488;13.436;2023-04-15T10:36:54;13.80;52.10
11239;DHT22;5677;48.488;13.436;2023-04-15T10:39:38;13.80;52.10
11239;DHT22;5677;48.488;13.436;2023-04-15T10:42:08;13.80;52.10
11239;DHT22;5677;48.488;13.436;2023-04-15T10:44:36;13.80;52.10
11239;DHT22;5677;48.488;13.436;2023-04-15T10:47:11;13.80;52.10
11239;DHT22;5677;48.488;13.436;2023-04-15T10:49:43;13.80;52.10
11239;DHT22;5677;48.488;13.436;2023-04-15T10:52:10;13.80;52.10
11239;DHT22;5677;48.488;13.436;2023-04-15T10:54:37;13.80;52.10
11239;DHT22;5677;48.488;13.436;2023-04-15T10:57:08;13.80;52.10
11239;DHT22;5677;48.488;13.436;2023-04-15T10:59:59;13.70;52.20
11239;DHT22;5677;48.488;13.436;2023-04-15T11:02:42;13.70;52.10
11239;DHT22;5677;48.488;13.436;2023-04-15T11:05:10;13.70;52.10
11239;DHT22;5677;48.488;13.436;2023-04-15T11:07:49;13.70;52.10
11239;DHT22;5677;48.488;13.436;2023-04-15T11:10:49;13.70;52.20
11239;DHT22;5677;48.488;13.436;2023-04-15T11:13:22;13.60;51.10
11239;DHT22;5677;48.488;13.436;2023-04-15T11:15:50;13.60;51.70
11239;DHT22;5677;48.488;13.436;2023-04-15T11:18:24;13.60;52.20
11239;DHT22;5677;48.488;13.436;2023-04-15T11:20:52;13.60;52.40
11239;DHT22;5677;48.488;13.436;2023-04-15T11:23:27;13.60;52.50
11239;DHT22;5677;48.488;13.436;2023-04-15T11:25:54;13.60;52.30
11239;DHT22;5677;48.488;13.436;2023-04-15T11:28:25;13.60;52.20
11239;DHT22;5677;48.488;13.436;2023-04-15T11:30:52;13.70;52.20
11239;DHT22;5677;48.488;13.436;2023-04-15T11:33:22;13.70;52.10
11239;DHT22;5677;48.488;13.436;2023-04-15T11:35:49;13.70;52.10
11239;DHT22;5677;48.488;13.436;2023-04-15T11:38:16;13.70;52.00
11239;DHT22;5677;48.488;13.436;2023-04-15T11:40:43;13.70;51.90
11239;DHT22;5677;48.488;13.436;2023-04-15T11:43:12;13.70;52.20
11239;DHT22;5677;48.488;13.436;2023-04-15T11:45:48;13.70;52.20
11239;DHT22;5677;48.488;13.436;2023-04-15T11:48:16;13.80;52.30
11239;DHT22;5677;48.488;13.436;2023-04-15T11:50:44;13.80;52.30
11239;DHT22;5677;48.488;13.436;2023-04-15T11:53:12;13.80;52.20
11239;DHT22;5677;48.488;13.436;2023-04-15T11:55:43;13.80;52.10
11239;DHT22;5677;48.488;13.436;2023-04-15T11:58:12;13.80;52.40
11239;DHT22;5677;48.488;13.436;2023-04-15T12:00:41;13.80;51.10
11239;DHT22;5677;48.488;13.436;2023-04-15T12:03:22;13.70;51.60
11239;DHT22;5677;48.488;13.436;2023-04-15T12:06:16;13.70;51.90
11239;DHT22;5677;48.488;13.436;2023-04-15T12:09:00;13.70;52.00
11239;DHT22;5677;48.488;13.436;2023-04-15T12:11:32;13.70;52.00
11239;DHT22;5677;48.488;13.436;2023-04-15T12:14:03;13.70;51.90
11239;DHT22;5677;48.488;13.436;2023-04-15T12:16:30;13.80;51.90
11239;DHT22;5677;48.488;13.436;2023-04-15T12:18:59;13.80;51.80
11239;DHT22;5677;48.488;13.436;2023-04-15T12:21:33;13.80;51.80
11239;DHT22;5677;48.488;13.436;2023-04-15T12:24:02;13.80;51.70
11239;DHT22;5677;48.488;13.436;2023-04-15T12:26:33;13.80;51.70
11239;DHT22;5677;48.488;13.436;2023-04-15T12:29:01;13.80;51.70
11239;DHT22;5677;48.488;13.436;2023-04-15T12:31:28;13.80;51.60
11239;DHT22;5677;48.488;13.436;2023-04-15T12:33:56;13.80;51.60
11239;DHT22;5677;48.488;13.436;2023-04-15T12:36:23;13.80;51.60
11239;DHT22;5677;48.488;13.436;2023-04-15T12:38:51;13.80;51.60
11239;DHT22;5677;48.488;13.436;2023-04-15T12:41:19;13.80;51.60
11239;DHT22;5677;48.488;13.436;2023-04-15T12:43:46;13.80;51.60
11239;DHT22;5677;48.488;13.436;2023-04-15T12:46:13;13.80;52.30
11239;DHT22;5677;48.488;13.436;2023-04-15T12:48:41;13.80;51.60
11239;DHT22;5677;48.488;13.436;2023-04-15T12:51:07;13.80;51.60
11239;DHT22;5677;48.488;13.436;2023-04-15T12:53:37;13.80;51.50
11239;DHT22;5677;48.488;13.436;2023-04-15T12:56:05;13.90;51.60
11239;DHT22;5677;48.488;13.436;2023-04-15T12:58:32;13.90;51.50
11239;DHT22;5677;48.488;13.436;2023-04-15T13:00:59;13.90;51.60
11239;DHT22;5677;48.488;13.436;2023-04-15T13:03:26;13.90;51.60
11239;DHT22;5677;48.488;13.436;2023-04-15T13:05:53;13.90;51.60
11239;DHT22;5677;48.488;13.436;2023-04-15T13:08:19;13.90;51.50
11239;DHT22;5677;48.488;13.436;2023-04-15T13:10:46;13.90;51.50
11239;DHT22;5677;48.488;13.436;2023-04-15T13:13:15;13.90;51.50
11239;DHT22;5677;48.488;13.436;2023-04-15T13:15:42;13.90;51.50
11239;DHT22;5677;48.488;13.436;2023-04-15T13:18:10;13.90;51.50
11239;DHT22;5677;48.488;13.436;2023-04-15T13:20:37;13.90;51.50
11239;DHT22;5677;48.488;13.436;2023-04-15T13:23:04;13.90;51.50
11239;DHT22;5677;48.488;13.436;2023-04-15T13:25:31;13.90;51.50
11239;DHT22;5677;48.488;13.436;2023-04-15T13:27:57;13.90;51.50
11239;DHT22;5677;48.488;13.436;2023-04-15T13:30:27;13.90;51.50
11239;DHT22;5677;48.488;13.436;2023-04-15T13:32:53;13.90;52.20
11239;DHT22;5677;48.488;13.436;2023-04-15T13:35:20;13.90;51.50
11239;DHT22;5677;48.488;13.436;2023-04-15T13:37:47;13.90;51.50
11239;DHT22;5677;48.488;13.436;2023-04-15T13:40:14;13.90;51.50
11239;DHT22;5677;48.488;13.436;2023-04-15T13:42:41;13.90;51.50
11239;DHT22;5677;48.488;13.436;2023-04-15T13:45:08;13.90;51.50
11239;DHT22;5677;48.488;13.436;2023-04-15T13:47:36;13.90;51.50
11239;DHT22;5677;48.488;13.436;2023-04-15T13:50:04;14.00;51.50
11239;DHT22;5677;48.488;13.436;2023-04-15T13:52:31;13.90;51.50
11239;DHT22;5677;48.488;13.436;2023-04-15T13:54:57;14.00;51.40
11239;DHT22;5677;48.488;13.436;2023-04-15T13:57:24;14.00;51.40
11239;DHT22;5677;48.488;13.436;2023-04-15T13:59:51;14.00;51.40
11239;DHT22;5677;48.488;13.436;2023-04-15T14:02:20;14.00;51.30
11239;DHT22;5677;48.488;13.436;2023-04-15T14:04:48;14.00;51.30
11239;DHT22;5677;48.488;13.436;2023-04-15T14:07:15;14.00;51.30
11239;DHT22;5677;48.488;13.436;2023-04-15T14:09:51;14.00;51.20
11239;DHT22;5677;48.488;13.436;2023-04-15T14:12:17;14.00;51.20
11239;DHT22;5677;48.488;13.436;2023-04-15T14:14:44;14.00;51.20
11239;DHT22;5677;48.488;13.436;2023-04-15T14:17:11;14.00;51.20
11239;DHT22;5677;48.488;13.436;2023-04-15T14:19:38;14.00;51.20
11239;DHT22;5677;48.488;13.436;2023-04-15T14:22:05;14.00;51.30
11239;DHT22;5677;48.488;13.436;2023-04-15T14:24:34;14.00;51.50
11239;DHT22;5677;48.488;13.436;2023-04-15T14:27:02;14.00;51.80
11239;DHT22;5677;48.488;13.436;2023-04-15T14:29:29;14.00;52.50
11239;DHT22;5677;48.488;13.436;2023-04-15T14:31:56;14.10;52.80
11239;DHT22;5677;48.488;13.436;2023-04-15T14:34:23;14.10;52.90
11239;DHT22;5677;48.488;13.436;2023-04-15T14:36:50;14.10;52.80
11239;DHT22;5677;48.488;13.436;2023-04-15T14:39:17;14.10;52.60
11239;DHT22;5677;48.488;13.436;2023-04-15T14:41:44;14.10;52.50
11239;DHT22;5677;48.488;13.436;2023-04-15T14:44:12;14.10;52.30
11239;DHT22;5677;48.488;13.436;2023-04-15T14:46:39;14.10;52.30
11239;DHT22;5677;48.488;13.436;2023-04-15T14:49:06;14.10;52.20
11239;DHT22;5677;48.488;13.436;2023-04-15T14:51:33;14.10;52.10
11239;DHT22;5677;48.488;13.436;2023-04-15T14:54:00;14.10;52.10
11239;DHT22;5677;48.488;13.436;2023-04-15T14:56:26;14.10;52.00
11239;DHT22;5677;48.488;13.436;2023-04-15T14:58:53;14.10;52.00
11239;DHT22;5677;48.488;13.436;2023-04-15T15:01:21;14.10;51.90
11239;DHT22;5677;48.488;13.436;2023-04-15T15:03:48;14.10;52.00
11239;DHT22;5677;48.488;13.436;2023-04-15T15:06:14;14.10;51.90
11239;DHT22;5677;48.488;13.436;2023-04-15T15:08:41;14.10;51.90
11239;DHT22;5677;48.488;13.436;2023-04-15T15:11:08;14.00;52.40
11239;DHT22;5677;48.488;13.436;2023-04-15T15:13:35;14.10;51.90
11239;DHT22;5677;48.488;13.436;2023-04-15T15:16:01;14.10;51.90
11239;DHT22;5677;48.488;13.436;2023-04-15T15:18:29;14.10;51.80
11239;DHT22;5677;48.488;13.436;2023-04-15T15:20:56;14.10;51.80
11239;DHT22;5677;48.488;13.436;2023-04-15T15:23:23;14.00;51.70
11239;DHT22;5677;48.488;13.436;2023-04-15T15:25:50;14.10;51.80
11239;DHT22;5677;48.488;13.436;2023-04-15T15:28:17;14.10;51.80
11239;DHT22;5677;48.488;13.436;2023-04-15T15:30:43;14.00;52.30
11239;DHT22;5677;48.488;13.436;2023-04-15T15:33:10;14.10;51.80
11239;DHT22;5677;48.488;13.436;2023-04-15T15:35:38;14.10;51.80